CheckWX is a tool to help pilots better visualize weather data.  It is not intended as a substitute for an official pre-flight weather briefing.

04:52:45 UTC

EGSC METAR
Cambridge Airport
Cambridge, United Kingdom
Current

12 hours ago

EGSC 261650Z 04012KT 9999 BKN013 15/12 Q1029
Observed
Jun-26 @ 16:50 UTC
Wind
  • 040° at 12 KTS
Visibility
10,000+ meters
Flight Rules
MVFR
Cloud Levels
  • Broken at 1,300' AGL
Temperature
15°C / 59°F
Dewpoint
12°C / 54°F
Humidity
82%
Altimeter
30.38" Hg
Pressure
1028.92 hPa
Previous

13 hours ago

EGSC 261620Z 04012KT 9999 BKN013 16/12 Q1029
Observed
Jun-26 @ 16:20 UTC
Wind
  • 040° at 12 KTS
Visibility
10,000+ meters
Flight Rules
MVFR
Cloud Levels
  • Broken at 1,300' AGL
Temperature
16°C / 61°F
Dewpoint
12°C / 54°F
Humidity
77%
Altimeter
30.38" Hg
Pressure
1028.92 hPa
Previous

13 hours ago

EGSC 261550Z 03012KT 9999 BKN014 16/13 Q1029
Observed
Jun-26 @ 15:50 UTC
Wind
  • 030° at 12 KTS
Visibility
10,000+ meters
Flight Rules
MVFR
Cloud Levels
  • Broken at 1,400' AGL
Temperature
16°C / 61°F
Dewpoint
13°C / 55°F
Humidity
83%
Altimeter
30.38" Hg
Pressure
1028.92 hPa